Time;durP1;ratioP1;P1;durP2;ratioP2;P2;SDS_P1;SDS_P2;PMS_P1;PMS_P2;Temp;Humidity;BMP_temperature;BMP_pressure;BME280_temperature;BME280_humidity;BME280_pressure;Samples;Min_cycle;Max_cycle;Signal;HPM_P1;HPM_P2
2023/03/02 00:04:07;;;;;;;8.18;4.80;;;;;;;;;;10401637;28;20540;-85
2023/03/02 00:09:10;;;;;;;8.53;4.30;;;;;;;;;;10392683;28;20473;-86
2023/03/02 00:14:11;;;;;;;7.10;3.93;;;;;;;;;;10401027;28;20443;-85
2023/03/02 00:19:14;;;;;;;5.38;3.45;;;;;;;;;;10396623;28;20534;-84
2023/03/02 00:24:16;;;;;;;5.10;3.40;;;;;;;;;;10403448;28;20486;-86
2023/03/02 00:29:18;;;;;;;6.38;3.55;;;;;;;;;;10408146;28;20509;-85
2023/03/02 00:34:21;;;;;;;11.50;5.53;;;;;;;;;;10403032;28;20805;-86
2023/03/02 00:39:23;;;;;;;6.03;3.50;;;;;;;;;;10401331;28;20556;-86
2023/03/02 00:44:25;;;;;;;5.53;3.22;;;;;;;;;;10402209;28;20454;-85
2023/03/02 00:49:28;;;;;;;4.25;2.88;;;;;;;;;;10406478;28;20409;-86
2023/03/02 00:54:30;;;;;;;5.05;3.13;;;;;;;;;;10400748;28;20456;-85
2023/03/02 00:59:31;;;;;;;4.10;2.92;;;;;;;;;;10395053;28;20430;-85
2023/03/02 01:04:36;;;;;;;3.58;2.92;;;;;;;;;;10391406;28;20911;-86
2023/03/02 01:09:39;;;;;;;4.13;2.70;;;;;;;;;;10400391;28;20477;-85
2023/03/02 01:14:43;;;;;;;4.50;3.00;;;;;;;;;;10395582;28;20467;-85
2023/03/02 01:19:47;;;;;;;4.68;3.25;;;;;;;;;;10399084;28;20472;-85
2023/03/02 01:24:49;;;;;;;5.72;2.90;;;;;;;;;;10397138;28;20887;-84
2023/03/02 01:29:51;;;;;;;4.50;3.45;;;;;;;;;;10399508;28;20947;-84
2023/03/02 01:34:54;;;;;;;5.63;2.88;;;;;;;;;;10396983;28;20751;-86
2023/03/02 01:39:56;;;;;;;4.50;3.17;;;;;;;;;;10393590;28;20423;-85
2023/03/02 01:44:58;;;;;;;4.53;3.00;;;;;;;;;;10394052;28;21225;-85
2023/03/02 01:50:04;;;;;;;5.53;3.13;;;;;;;;;;10391075;28;20948;-86
2023/03/02 01:55:09;;;;;;;5.07;2.80;;;;;;;;;;10392490;28;20450;-85
2023/03/02 02:00:14;;;;;;;3.95;3.03;;;;;;;;;;10398806;28;20454;-85
2023/03/02 02:05:21;;;;;;;4.13;2.80;;;;;;;;;;10389215;28;20824;-85
2023/03/02 02:10:23;;;;;;;4.53;2.70;;;;;;;;;;10389584;28;20513;-85
2023/03/02 02:15:25;;;;;;;4.13;2.47;;;;;;;;;;10389168;28;20465;-86
2023/03/02 02:20:35;;;;;;;3.30;2.07;;;;;;;;;;10388636;28;20564;-85
2023/03/02 02:25:47;;;;;;;3.08;2.33;;;;;;;;;;10393392;28;20419;-86
2023/03/02 02:30:55;;;;;;;2.72;2.30;;;;;;;;;;10391395;28;20502;-85
2023/03/02 02:36:04;;;;;;;2.83;2.20;;;;;;;;;;10389815;28;20583;-86
2023/03/02 02:41:12;;;;;;;4.20;2.40;;;;;;;;;;10389129;28;20490;-86
2023/03/02 02:46:16;;;;;;;3.20;2.50;;;;;;;;;;10385178;28;20511;-85
2023/03/02 02:51:22;;;;;;;2.83;2.07;;;;;;;;;;10400360;28;20541;-85
2023/03/02 02:56:27;;;;;;;2.50;2.08;;;;;;;;;;10396756;28;20522;-86
2023/03/02 03:01:30;;;;;;;3.50;2.45;;;;;;;;;;10398051;28;20485;-85
2023/03/02 03:06:37;;;;;;;4.15;2.20;;;;;;;;;;10387203;28;20450;-84
2023/03/02 03:11:41;;;;;;;3.88;2.20;;;;;;;;;;10384062;28;20563;-85
2023/03/02 03:16:46;;;;;;;3.50;2.20;;;;;;;;;;10401930;28;20798;-85
2023/03/02 03:21:50;;;;;;;2.97;2.53;;;;;;;;;;10405678;28;20461;-85
2023/03/02 03:26:53;;;;;;;3.30;2.40;;;;;;;;;;10410550;28;20834;-86
2023/03/02 03:31:57;;;;;;;3.70;2.17;;;;;;;;;;10399484;28;20470;-85
2023/03/02 03:37:00;;;;;;;3.70;2.58;;;;;;;;;;10394796;28;20485;-85
2023/03/02 03:42:02;;;;;;;3.25;2.38;;;;;;;;;;10398532;28;20950;-85
2023/03/02 03:47:05;;;;;;;4.47;2.50;;;;;;;;;;10393910;28;20936;-85
2023/03/02 03:52:07;;;;;;;2.90;2.33;;;;;;;;;;10391941;28;20860;-84
2023/03/02 03:57:10;;;;;;;3.63;2.55;;;;;;;;;;10395668;28;20426;-84
2023/03/02 04:02:14;;;;;;;4.30;3.00;;;;;;;;;;10397803;28;20815;-85
2023/03/02 04:07:16;;;;;;;3.60;2.90;;;;;;;;;;10400774;28;20411;-84
2023/03/02 04:12:17;;;;;;;4.78;3.67;;;;;;;;;;10398810;28;20458;-85
2023/03/02 04:17:21;;;;;;;5.30;3.67;;;;;;;;;;10393619;28;20425;-84
2023/03/02 04:22:22;;;;;;;6.05;3.60;;;;;;;;;;10400015;28;20417;-85
2023/03/02 04:27:24;;;;;;;6.85;3.90;;;;;;;;;;10392520;28;20933;-84
2023/03/02 04:32:27;;;;;;;6.23;3.87;;;;;;;;;;10401311;28;20884;-85
2023/03/02 04:37:30;;;;;;;5.13;3.47;;;;;;;;;;10398262;28;20777;-84
2023/03/02 04:42:31;;;;;;;5.28;3.60;;;;;;;;;;10392777;28;20421;-85
2023/03/02 04:47:35;;;;;;;5.80;4.40;;;;;;;;;;10386784;28;20504;-85
2023/03/02 04:52:37;;;;;;;7.80;3.78;;;;;;;;;;10395522;28;20413;-85
2023/03/02 04:57:38;;;;;;;4.80;3.58;;;;;;;;;;10401031;28;21143;-85
2023/03/02 05:02:42;;;;;;;7.15;3.88;;;;;;;;;;10400493;28;20413;-84
2023/03/02 05:07:44;;;;;;;6.75;3.47;;;;;;;;;;10405292;28;20459;-85
2023/03/02 05:12:56;;;;;;;7.13;4.00;;;;;;;;;;10394712;28;20420;-85
2023/03/02 05:18:00;;;;;;;4.82;4.13;;;;;;;;;;10397285;28;20426;-85
2023/03/02 05:23:04;;;;;;;5.78;3.55;;;;;;;;;;10392113;28;20417;-85
2023/03/02 05:28:06;;;;;;;5.37;3.87;;;;;;;;;;10388376;28;20457;-84
2023/03/02 05:33:09;;;;;;;5.00;3.87;;;;;;;;;;10399379;28;20898;-85
2023/03/02 05:38:11;;;;;;;7.15;4.57;;;;;;;;;;10397036;28;20630;-85
2023/03/02 05:43:17;;;;;;;5.68;4.60;;;;;;;;;;10392037;28;20521;-84
2023/03/02 05:48:20;;;;;;;5.28;4.30;;;;;;;;;;10405254;28;20542;-84
2023/03/02 05:53:22;;;;;;;6.03;4.47;;;;;;;;;;10396956;28;20999;-85
2023/03/02 05:58:24;;;;;;;5.28;4.22;;;;;;;;;;10390883;28;20428;-84
2023/03/02 06:03:27;;;;;;;6.05;4.22;;;;;;;;;;10402205;28;20410;-85
2023/03/02 06:08:29;;;;;;;6.70;4.70;;;;;;;;;;10391286;28;20487;-85
2023/03/02 06:13:31;;;;;;;8.40;5.32;;;;;;;;;;10395724;28;20427;-85
2023/03/02 06:18:34;;;;;;;7.07;4.47;;;;;;;;;;10393858;28;20427;-85
2023/03/02 06:23:36;;;;;;;8.02;4.88;;;;;;;;;;10386804;28;20403;-85
2023/03/02 06:28:39;;;;;;;5.68;4.30;;;;;;;;;;10397401;28;20419;-85
2023/03/02 06:33:42;;;;;;;7.70;5.00;;;;;;;;;;10390580;28;20416;-85
2023/03/02 06:38:44;;;;;;;6.25;5.18;;;;;;;;;;10402308;28;20437;-84
2023/03/02 06:43:46;;;;;;;8.38;5.32;;;;;;;;;;10405546;23;20422;-85
2023/03/02 06:48:49;;;;;;;5.83;4.80;;;;;;;;;;10395695;28;20846;-84
2023/03/02 06:53:51;;;;;;;6.07;4.50;;;;;;;;;;10407473;28;20462;-86
2023/03/02 06:58:52;;;;;;;5.53;3.83;;;;;;;;;;10414862;28;20870;-87
2023/03/02 07:03:55;;;;;;;5.60;3.65;;;;;;;;;;10407046;28;20776;-86
2023/03/02 07:08:57;;;;;;;4.65;3.65;;;;;;;;;;10404740;28;20415;-86
2023/03/02 07:13:59;;;;;;;4.10;3.20;;;;;;;;;;10402035;28;20411;-85
2023/03/02 07:19:03;;;;;;;3.45;2.67;;;;;;;;;;10395871;28;20797;-85
2023/03/02 07:24:05;;;;;;;3.28;2.15;;;;;;;;;;10399725;28;20452;-85
2023/03/02 07:29:07;;;;;;;2.60;1.93;;;;;;;;;;10401951;28;20448;-85
2023/03/02 07:34:10;;;;;;;2.60;2.25;;;;;;;;;;10391842;28;20411;-85
2023/03/02 07:39:12;;;;;;;2.40;2.10;;;;;;;;;;10398714;28;20468;-87
2023/03/02 07:44:14;;;;;;;2.95;2.40;;;;;;;;;;10403475;28;20452;-86
2023/03/02 07:49:17;;;;;;;5.47;2.60;;;;;;;;;;10402714;28;20406;-86
2023/03/02 07:54:18;;;;;;;2.80;2.33;;;;;;;;;;10401785;28;20459;-86
2023/03/02 07:59:20;;;;;;;3.27;2.60;;;;;;;;;;10398343;28;20499;-87
2023/03/02 08:04:24;;;;;;;4.00;2.55;;;;;;;;;;10387536;28;20495;-87
2023/03/02 08:09:26;;;;;;;3.78;2.70;;;;;;;;;;10402210;28;20540;-86
2023/03/02 08:14:27;;;;;;;4.27;2.80;;;;;;;;;;10407126;28;20456;-87
2023/03/02 08:19:31;;;;;;;4.57;2.90;;;;;;;;;;10393950;28;20437;-86
2023/03/02 08:24:33;;;;;;;4.00;2.80;;;;;;;;;;10397107;28;20541;-87
2023/03/02 08:29:34;;;;;;;3.55;2.63;;;;;;;;;;10397608;28;20480;-86
2023/03/02 08:34:38;;;;;;;3.35;2.28;;;;;;;;;;10405820;28;20901;-87
2023/03/02 08:39:39;;;;;;;4.43;2.50;;;;;;;;;;10388873;28;20480;-87
2023/03/02 08:44:41;;;;;;;3.17;2.40;;;;;;;;;;10399394;28;20503;-87
2023/03/02 08:49:44;;;;;;;3.47;2.35;;;;;;;;;;10401062;28;20409;-87
2023/03/02 08:54:46;;;;;;;5.07;2.20;;;;;;;;;;10402431;28;20489;-87
2023/03/02 08:59:48;;;;;;;2.92;2.20;;;;;;;;;;10429124;28;20422;-87
2023/03/02 09:04:51;;;;;;;4.57;2.33;;;;;;;;;;10394448;28;20408;-86
2023/03/02 09:09:53;;;;;;;4.10;2.40;;;;;;;;;;10400346;28;20417;-87
2023/03/02 09:14:55;;;;;;;5.78;2.80;;;;;;;;;;10397771;28;20409;-87
2023/03/02 09:19:59;;;;;;;3.93;2.70;;;;;;;;;;10398258;28;20802;-87
2023/03/02 09:25:01;;;;;;;3.83;2.75;;;;;;;;;;10397006;28;20887;-86
2023/03/02 09:30:03;;;;;;;4.28;2.60;;;;;;;;;;10397509;28;20485;-86
2023/03/02 09:35:08;;;;;;;5.18;2.90;;;;;;;;;;10398412;28;20916;-86
2023/03/02 09:40:17;;;;;;;3.43;2.70;;;;;;;;;;10403885;28;20947;-86
2023/03/02 09:45:30;;;;;;;3.70;2.67;;;;;;;;;;10387909;28;21455;-85
2023/03/02 09:50:34;;;;;;;4.00;2.70;;;;;;;;;;10389170;28;20494;-86
2023/03/02 09:55:37;;;;;;;10.90;3.35;;;;;;;;;;10392938;28;20485;-86
2023/03/02 10:00:42;;;;;;;4.57;3.20;;;;;;;;;;10393236;28;20785;-86
2023/03/02 10:05:47;;;;;;;6.80;3.47;;;;;;;;;;10391252;28;20520;-85
2023/03/02 10:10:57;;;;;;;5.07;3.30;;;;;;;;;;10395549;28;20403;-87
2023/03/02 10:16:12;;;;;;;4.70;3.23;;;;;;;;;;10398837;28;20460;-86
2023/03/02 10:21:24;;;;;;;5.07;3.38;;;;;;;;;;10397862;28;20438;-87
2023/03/02 10:26:36;;;;;;;5.13;3.40;;;;;;;;;;10399346;28;20991;-86
2023/03/02 10:31:39;;;;;;;8.48;5.90;;;;;;;;;;10397295;28;20411;-87
2023/03/02 10:36:46;;;;;;;5.03;3.63;;;;;;;;;;10390046;28;20413;-87
2023/03/02 10:41:51;;;;;;;3.72;3.20;;;;;;;;;;10394509;28;20432;-87
2023/03/02 10:46:53;;;;;;;3.92;3.50;;;;;;;;;;10392579;28;20482;-87
2023/03/02 10:51:58;;;;;;;4.60;3.40;;;;;;;;;;10398563;28;20502;-87
2023/03/02 10:57:02;;;;;;;5.85;3.72;;;;;;;;;;10395648;28;20459;-87
2023/03/02 11:02:14;;;;;;;4.82;3.75;;;;;;;;;;10391547;28;20398;-88
2023/03/02 11:07:19;;;;;;;5.43;3.77;;;;;;;;;;10403771;28;20413;-85
2023/03/02 11:12:21;;;;;;;6.40;3.53;;;;;;;;;;10394876;28;20417;-85
2023/03/02 11:17:31;;;;;;;3.83;3.00;;;;;;;;;;10400711;28;20869;-86
2023/03/02 11:22:41;;;;;;;3.80;2.92;;;;;;;;;;10388829;28;20974;-85
2023/03/02 11:27:44;;;;;;;4.00;3.25;;;;;;;;;;10391704;28;20783;-86
2023/03/02 11:32:53;;;;;;;4.57;3.58;;;;;;;;;;10401749;28;20401;-86
2023/03/02 11:38:04;;;;;;;5.50;3.40;;;;;;;;;;10398258;28;20425;-84
2023/03/02 11:43:05;;;;;;;3.88;2.95;;;;;;;;;;10403938;28;20419;-85
2023/03/02 11:48:12;;;;;;;3.85;2.80;;;;;;;;;;10405776;28;20416;-86
2023/03/02 11:53:19;;;;;;;5.47;3.03;;;;;;;;;;10406596;28;20401;-86
2023/03/02 11:58:23;;;;;;;4.90;3.00;;;;;;;;;;10407419;28;20439;-87
2023/03/02 12:03:38;;;;;;;4.00;2.83;;;;;;;;;;10406391;28;20424;-87
2023/03/02 12:08:43;;;;;;;3.80;2.70;;;;;;;;;;10402866;28;20758;-87
2023/03/02 12:13:57;;;;;;;3.70;3.03;;;;;;;;;;10396160;28;20417;-85
2023/03/02 12:19:11;;;;;;;5.37;3.40;;;;;;;;;;10396039;28;20420;-86
2023/03/02 12:24:25;;;;;;;4.22;3.60;;;;;;;;;;10393523;28;20497;-85
2023/03/02 12:29:37;;;;;;;5.53;3.90;;;;;;;;;;10402592;28;20423;-86
2023/03/02 12:34:41;;;;;;;4.90;3.20;;;;;;;;;;10406551;28;20413;-85
2023/03/02 12:40:17;;;;;;;3.63;2.60;;;;;;;;;;10420949;28;20417;-87
2023/03/02 12:45:31;;;;;;;2.95;2.60;;;;;;;;;;10408652;28;20415;-86
2023/03/02 12:50:39;;;;;;;5.35;2.85;;;;;;;;;;10396921;28;20422;-85
2023/03/02 12:55:42;;;;;;;2.95;2.55;;;;;;;;;;10396786;28;20510;-87
2023/03/02 13:00:51;;;;;;;5.78;2.47;;;;;;;;;;10387310;28;20437;-87
2023/03/02 13:06:01;;;;;;;3.55;2.60;;;;;;;;;;10392911;28;20504;-88
2023/03/02 13:11:04;;;;;;;5.35;2.55;;;;;;;;;;10403178;28;20500;-86
2023/03/02 13:16:19;;;;;;;3.15;2.40;;;;;;;;;;10400973;28;20395;-87
2023/03/02 13:21:24;;;;;;;2.67;2.47;;;;;;;;;;10399955;28;20461;-86
2023/03/02 13:26:30;;;;;;;3.17;2.63;;;;;;;;;;10399271;28;20911;-87
2023/03/02 13:31:33;;;;;;;3.58;2.60;;;;;;;;;;10395709;28;20417;-87
2023/03/02 13:36:37;;;;;;;3.23;2.93;;;;;;;;;;10400056;28;20415;-87
2023/03/02 13:41:53;;;;;;;5.07;3.60;;;;;;;;;;10404701;28;20429;-86
2023/03/02 13:46:56;;;;;;;4.70;3.30;;;;;;;;;;10401243;28;20411;-87
2023/03/02 13:52:02;;;;;;;3.50;3.20;;;;;;;;;;10400673;28;20428;-87
2023/03/02 13:57:06;;;;;;;3.53;3.20;;;;;;;;;;10398693;28;20414;-87
2023/03/02 14:02:22;;;;;;;3.43;3.00;;;;;;;;;;10396620;28;20413;-87
2023/03/02 14:07:24;;;;;;;4.60;3.50;;;;;;;;;;10399656;28;20985;-87
2023/03/02 14:12:30;;;;;;;2.87;2.30;;;;;;;;;;10402622;28;20864;-87
2023/03/02 14:17:32;;;;;;;3.10;2.28;;;;;;;;;;10391959;28;20500;-87
2023/03/02 14:22:34;;;;;;;3.95;3.55;;;;;;;;;;10401088;28;20500;-89
2023/03/02 14:27:38;;;;;;;3.13;2.83;;;;;;;;;;10400629;28;20746;-87
2023/03/02 14:32:40;;;;;;;4.40;3.00;;;;;;;;;;10402443;28;20551;-85
2023/03/02 14:37:44;;;;;;;5.07;3.08;;;;;;;;;;10401973;28;20405;-86
2023/03/02 14:42:50;;;;;;;3.55;3.22;;;;;;;;;;10398085;28;20795;-86
2023/03/02 14:47:52;;;;;;;3.95;3.40;;;;;;;;;;10398625;28;20409;-85
2023/03/02 14:52:55;;;;;;;3.83;3.23;;;;;;;;;;10402918;28;20518;-86
2023/03/02 14:58:01;;;;;;;3.60;2.93;;;;;;;;;;10404098;28;20413;-87
2023/03/02 15:03:02;;;;;;;4.20;3.40;;;;;;;;;;10405454;28;20831;-86
2023/03/02 15:08:05;;;;;;;2.60;2.38;;;;;;;;;;10394335;28;20760;-85
2023/03/02 15:13:08;;;;;;;2.17;1.90;;;;;;;;;;10412626;28;20476;-86
2023/03/02 15:18:13;;;;;;;3.30;2.40;;;;;;;;;;10401370;28;20455;-85
2023/03/02 15:23:15;;;;;;;4.47;2.78;;;;;;;;;;10404350;28;20416;-88
2023/03/02 15:28:18;;;;;;;2.40;2.20;;;;;;;;;;10413172;28;20508;-88
2023/03/02 15:33:20;;;;;;;2.60;2.20;;;;;;;;;;10412351;28;20409;-87
2023/03/02 15:38:22;;;;;;;2.47;2.13;;;;;;;;;;10413435;28;20421;-87
2023/03/02 15:43:25;;;;;;;3.90;2.50;;;;;;;;;;10406257;28;20519;-87
2023/03/02 15:48:27;;;;;;;4.50;2.77;;;;;;;;;;10411077;28;20931;-87
2023/03/02 15:53:31;;;;;;;6.80;2.70;;;;;;;;;;10405219;28;20415;-88
2023/03/02 15:58:34;;;;;;;4.20;3.10;;;;;;;;;;10404144;28;20438;-87
2023/03/02 16:03:36;;;;;;;6.38;4.28;;;;;;;;;;10413848;28;20398;-86
2023/03/02 16:08:38;;;;;;;5.53;4.40;;;;;;;;;;10413582;28;20488;-87
2023/03/02 16:13:41;;;;;;;6.85;4.30;;;;;;;;;;10401067;28;20417;-87
2023/03/02 16:18:43;;;;;;;6.75;4.15;;;;;;;;;;10406981;28;20421;-85
2023/03/02 16:23:45;;;;;;;5.55;4.30;;;;;;;;;;10420888;28;20456;-86
2023/03/02 16:28:49;;;;;;;5.68;4.50;;;;;;;;;;10425937;28;20418;-85
2023/03/02 16:33:50;;;;;;;4.63;3.72;;;;;;;;;;10397694;28;20439;-85
2023/03/02 16:38:52;;;;;;;4.90;3.70;;;;;;;;;;10402171;28;20421;-86
2023/03/02 16:43:57;;;;;;;5.82;3.85;;;;;;;;;;10403956;28;20504;-86
2023/03/02 16:48:59;;;;;;;5.05;3.83;;;;;;;;;;10397056;28;20518;-86
2023/03/02 16:54:01;;;;;;;5.38;3.95;;;;;;;;;;10397757;28;20461;-85
2023/03/02 16:59:04;;;;;;;5.97;4.30;;;;;;;;;;10401295;28;20433;-86
2023/03/02 17:04:06;;;;;;;5.88;4.43;;;;;;;;;;10392315;28;20472;-86
2023/03/02 17:09:07;;;;;;;6.85;4.63;;;;;;;;;;10401915;28;20788;-86
2023/03/02 17:14:11;;;;;;;7.85;4.80;;;;;;;;;;10398559;28;20409;-85
2023/03/02 17:19:13;;;;;;;6.20;4.13;;;;;;;;;;10396156;28;20910;-86
2023/03/02 17:24:15;;;;;;;6.50;4.90;;;;;;;;;;10396559;28;20769;-87
2023/03/02 17:29:18;;;;;;;7.82;5.32;;;;;;;;;;10392858;28;20467;-86
2023/03/02 17:34:20;;;;;;;8.75;5.28;;;;;;;;;;10395702;28;20475;-89
2023/03/02 17:39:21;;;;;;;6.57;4.50;;;;;;;;;;10383377;28;20427;-86
2023/03/02 17:44:26;;;;;;;8.88;6.03;;;;;;;;;;10389636;28;20758;-87
2023/03/02 17:49:28;;;;;;;11.38;8.02;;;;;;;;;;10401841;28;20427;-85
2023/03/02 17:54:29;;;;;;;12.93;7.55;;;;;;;;;;10400691;28;20445;-86
2023/03/02 17:59:33;;;;;;;14.93;8.55;;;;;;;;;;10396393;28;20429;-87
2023/03/02 18:04:34;;;;;;;13.60;8.75;;;;;;;;;;10405969;28;20471;-87
2023/03/02 18:09:36;;;;;;;11.23;8.52;;;;;;;;;;10393670;28;20543;-86
2023/03/02 18:14:40;;;;;;;16.97;8.70;;;;;;;;;;10395532;28;20516;-86
2023/03/02 18:19:41;;;;;;;15.20;10.10;;;;;;;;;;10387072;28;20423;-87
2023/03/02 18:24:43;;;;;;;14.90;10.10;;;;;;;;;;10399159;28;20424;-87
2023/03/02 18:29:46;;;;;;;14.70;11.07;;;;;;;;;;10394486;28;20437;-86
2023/03/02 18:34:48;;;;;;;16.48;11.18;;;;;;;;;;10398781;28;21031;-86
2023/03/02 18:39:50;;;;;;;16.92;11.60;;;;;;;;;;10397402;28;20433;-85
2023/03/02 18:44:53;;;;;;;30.88;16.90;;;;;;;;;;10395268;28;20797;-87
2023/03/02 18:49:56;;;;;;;23.30;14.45;;;;;;;;;;10388872;28;20909;-87
2023/03/02 18:54:58;;;;;;;34.72;21.33;;;;;;;;;;10388707;28;20411;-88
2023/03/02 19:00:01;;;;;;;35.47;21.55;;;;;;;;;;10395398;28;20475;-89
2023/03/02 19:05:02;;;;;;;37.15;22.65;;;;;;;;;;10396673;28;20418;-86
2023/03/02 19:10:05;;;;;;;38.90;22.63;;;;;;;;;;10397106;28;20445;-85
2023/03/02 19:15:10;;;;;;;29.73;20.23;;;;;;;;;;10394557;28;20415;-85
2023/03/02 19:20:15;;;;;;;29.77;18.65;;;;;;;;;;10399202;28;20520;-85
2023/03/02 19:25:16;;;;;;;26.60;17.00;;;;;;;;;;10398805;28;21202;-85
2023/03/02 19:30:24;;;;;;;32.22;19.33;;;;;;;;;;10396901;28;20439;-85
2023/03/02 19:35:28;;;;;;;28.63;19.10;;;;;;;;;;10398237;28;20496;-84
2023/03/02 19:40:30;;;;;;;29.13;19.50;;;;;;;;;;10398752;28;20547;-86
2023/03/02 19:45:35;;;;;;;30.40;21.10;;;;;;;;;;10386896;28;20409;-85
2023/03/02 19:50:36;;;;;;;32.13;20.30;;;;;;;;;;10396491;28;20483;-85
2023/03/02 19:55:41;;;;;;;32.97;19.33;;;;;;;;;;10393130;28;20771;-85
2023/03/02 20:00:45;;;;;;;31.23;19.70;;;;;;;;;;10402828;28;20427;-87
2023/03/02 20:05:47;;;;;;;31.08;20.13;;;;;;;;;;10403079;28;20409;-87
2023/03/02 20:10:50;;;;;;;28.88;19.58;;;;;;;;;;10388167;28;20847;-86
2023/03/02 20:15:53;;;;;;;28.45;19.50;;;;;;;;;;10425878;28;20405;-84
2023/03/02 20:20:56;;;;;;;32.70;19.67;;;;;;;;;;10411428;28;20425;-86
2023/03/02 20:25:57;;;;;;;31.08;20.02;;;;;;;;;;10401601;28;20481;-84
2023/03/02 20:31:05;;;;;;;30.50;18.07;;;;;;;;;;10405111;28;20433;-86
2023/03/02 20:36:10;;;;;;;28.27;17.95;;;;;;;;;;10403762;28;20545;-85
2023/03/02 20:41:13;;;;;;;25.38;16.65;;;;;;;;;;10403432;28;20461;-86
2023/03/02 20:46:21;;;;;;;25.23;16.85;;;;;;;;;;10402607;28;20460;-85
2023/03/02 20:51:24;;;;;;;24.88;16.40;;;;;;;;;;10394388;28;20535;-87
2023/03/02 20:56:26;;;;;;;23.65;16.15;;;;;;;;;;10403988;28;20450;-86
2023/03/02 21:01:30;;;;;;;24.20;16.02;;;;;;;;;;10396877;28;20438;-85
2023/03/02 21:06:33;;;;;;;24.10;16.07;;;;;;;;;;10397130;28;20468;-86
2023/03/02 21:11:36;;;;;;;24.08;16.67;;;;;;;;;;10396988;28;20516;-86
2023/03/02 21:16:41;;;;;;;25.58;16.67;;;;;;;;;;10397883;28;20419;-85
2023/03/02 21:21:43;;;;;;;26.23;16.45;;;;;;;;;;10399194;28;20533;-85
2023/03/02 21:26:48;;;;;;;26.13;17.80;;;;;;;;;;10404468;28;20532;-85
2023/03/02 21:31:52;;;;;;;30.25;19.35;;;;;;;;;;10398003;28;20451;-85
2023/03/02 21:36:54;;;;;;;29.40;20.37;;;;;;;;;;10403113;28;20541;-85
2023/03/02 21:41:56;;;;;;;34.10;21.02;;;;;;;;;;10396771;28;20427;-86
2023/03/02 21:46:59;;;;;;;32.22;20.45;;;;;;;;;;10391423;28;20467;-85
2023/03/02 21:52:01;;;;;;;30.90;20.20;;;;;;;;;;10399364;28;20515;-87
2023/03/02 21:57:03;;;;;;;28.23;19.38;;;;;;;;;;10397160;28;20422;-85
2023/03/02 22:02:06;;;;;;;29.15;19.67;;;;;;;;;;10391740;28;20815;-85
2023/03/02 22:07:08;;;;;;;30.58;19.15;;;;;;;;;;10394940;28;20826;-86
2023/03/02 22:12:13;;;;;;;25.50;18.02;;;;;;;;;;10401296;28;20519;-85
2023/03/02 22:17:18;;;;;;;26.85;17.40;;;;;;;;;;10392266;28;20515;-86
2023/03/02 22:22:24;;;;;;;27.40;18.07;;;;;;;;;;10399286;28;20425;-87
2023/03/02 22:27:28;;;;;;;23.93;16.97;;;;;;;;;;10397601;28;20527;-85
2023/03/02 22:32:36;;;;;;;25.47;17.90;;;;;;;;;;10398645;28;20838;-85
2023/03/02 22:37:38;;;;;;;24.13;16.23;;;;;;;;;;10400910;28;20470;-85
2023/03/02 22:42:40;;;;;;;21.52;15.55;;;;;;;;;;10400727;28;20423;-85
2023/03/02 22:47:46;;;;;;;21.17;15.73;;;;;;;;;;10400138;28;20423;-84
2023/03/02 22:52:48;;;;;;;21.83;15.57;;;;;;;;;;10386870;28;20405;-85
2023/03/02 22:57:50;;;;;;;22.25;15.32;;;;;;;;;;10384765;28;20526;-89
2023/03/02 23:02:55;;;;;;;21.38;15.65;;;;;;;;;;10391480;28;20442;-87
2023/03/02 23:08:07;;;;;;;23.20;15.38;;;;;;;;;;10396736;28;20773;-86
2023/03/02 23:13:10;;;;;;;21.75;15.85;;;;;;;;;;10387654;28;20518;-86
2023/03/02 23:18:21;;;;;;;21.73;14.68;;;;;;;;;;10402079;28;20547;-86
2023/03/02 23:23:24;;;;;;;22.90;15.13;;;;;;;;;;10386992;28;20530;-85
2023/03/02 23:28:26;;;;;;;22.52;15.30;;;;;;;;;;10392249;28;20409;-85
2023/03/02 23:33:29;;;;;;;20.03;14.47;;;;;;;;;;10404603;28;20869;-85
2023/03/02 23:38:31;;;;;;;20.55;14.23;;;;;;;;;;10402343;28;20411;-86
2023/03/02 23:43:33;;;;;;;19.92;14.32;;;;;;;;;;10407668;28;20483;-86
2023/03/02 23:48:36;;;;;;;22.00;15.02;;;;;;;;;;10400699;28;20435;-85
2023/03/02 23:53:38;;;;;;;21.52;15.00;;;;;;;;;;10399376;28;20407;-85
2023/03/02 23:58:41;;;;;;;18.90;13.52;;;;;;;;;;10419590;28;20431;-84
